Time;durP1;ratioP1;P1;durP2;ratioP2;P2;SDS_P1;SDS_P2;PMS_P1;PMS_P2;Temp;Humidity;BMP_temperature;BMP_pressure;BME280_temperature;BME280_humidity;BME280_pressure;Samples;Min_cycle;Max_cycle;Signal;HPM_P1;HPM_P2
2023/06/03 00:00:48;;;;;;;4.80;1.40;;;4.20;99.90;;;2.67;79.43;102049.25;4988742;28;20036;-76
2023/06/03 00:03:14;;;;;;;3.42;0.95;;;4.20;99.90;;;2.69;79.13;102054.47;4989393;28;20081;-76
2023/06/03 00:05:40;;;;;;;2.42;1.00;;;4.20;99.90;;;2.70;79.33;102048.38;4990926;28;20403;-76
2023/06/03 00:08:06;;;;;;;5.53;1.30;;;4.20;99.90;;;2.74;79.37;102060.56;4975144;28;20104;-76
2023/06/03 00:10:32;;;;;;;3.65;1.30;;;4.20;99.90;;;2.77;79.71;102052.78;4991622;28;20411;-77
2023/06/03 00:12:58;;;;;;;4.35;1.40;;;4.20;99.90;;;2.78;79.97;102062.31;4974779;28;20041;-76
2023/06/03 00:15:24;;;;;;;3.17;1.40;;;4.20;99.90;;;2.79;79.96;102058.88;4992417;28;20036;-76
2023/06/03 00:17:49;;;;;;;7.13;1.38;;;4.30;99.90;;;2.80;80.08;102060.59;4991135;28;20407;-76
2023/06/03 00:20:16;;;;;;;3.75;1.33;;;4.20;99.90;;;2.80;80.70;102063.22;4993184;28;20045;-76
2023/06/03 00:22:42;;;;;;;5.28;1.10;;;4.30;99.90;;;2.75;80.45;102068.38;4982316;28;20469;-76
2023/06/03 00:25:11;;;;;;;2.83;1.10;;;4.20;99.90;;;2.70;80.50;102064.88;4973282;28;20086;-76
2023/06/03 00:27:38;;;;;;;2.50;1.33;;;4.20;99.90;;;2.65;80.00;102057.03;4992303;28;20026;-76
2023/06/03 00:30:06;;;;;;;4.13;1.33;;;4.10;99.90;;;2.63;79.98;102068.28;4976959;28;20034;-76
2023/06/03 00:32:33;;;;;;;4.40;1.67;;;4.10;99.90;;;2.62;80.65;102062.22;4991668;28;20043;-76
2023/06/03 00:34:59;;;;;;;3.42;1.40;;;4.10;99.90;;;2.63;81.60;102060.47;4989531;28;20026;-76
2023/06/03 00:37:25;;;;;;;3.53;1.17;;;4.10;99.90;;;2.67;82.77;102057.91;4973071;28;20050;-76
2023/06/03 00:39:51;;;;;;;8.18;1.40;;;4.20;99.90;;;2.73;83.28;102066.63;5008483;28;20743;-76
2023/06/03 00:42:17;;;;;;;2.58;1.20;;;4.20;99.90;;;2.77;83.35;102071.88;4993711;28;20038;-76
2023/06/03 00:44:43;;;;;;;4.15;1.27;;;4.20;99.90;;;2.78;83.10;102073.59;4993545;28;20415;-76
2023/06/03 00:47:09;;;;;;;4.53;1.58;;;4.20;99.90;;;2.78;83.03;102073.59;4992143;28;20126;-77
2023/06/03 00:49:36;;;;;;;2.72;1.15;;;4.20;99.90;;;2.77;83.04;102073.59;4988213;28;20104;-77
2023/06/03 00:52:03;;;;;;;7.20;1.75;;;4.20;99.90;;;2.72;82.59;102067.47;4994899;28;20038;-76
2023/06/03 00:54:29;;;;;;;4.15;1.70;;;4.20;99.90;;;2.70;82.94;102075.28;4996700;28;20569;-76
2023/06/03 00:56:57;;;;;;;4.57;1.15;;;4.10;99.90;;;2.65;82.75;102072.63;4973254;28;20039;-76
2023/06/03 00:59:23;;;;;;;2.75;1.20;;;4.10;99.90;;;2.57;82.58;102069.13;4990413;28;20034;-75
2023/06/03 01:01:50;;;;;;;4.40;1.17;;;4.00;99.90;;;2.48;81.93;102069.03;4991046;28;20035;-76
2023/06/03 01:04:18;;;;;;;2.15;1.10;;;3.90;99.90;;;2.37;81.78;102062.88;4991097;28;20053;-76
2023/06/03 01:07:13;;;;;;;2.92;1.30;;;3.80;99.90;;;2.25;81.21;102061.91;4989486;28;20061;-76
2023/06/03 01:10:09;;;;;;;3.97;1.10;;;3.70;99.90;;;2.14;80.61;102066.16;4990673;28;20450;-76
2023/06/03 01:12:56;;;;;;;4.78;1.17;;;3.60;99.90;;;2.01;80.80;102067.75;4992215;28;20083;-76
2023/06/03 01:15:27;;;;;;;2.72;1.63;;;3.50;99.90;;;1.87;80.72;102066.72;4994816;28;20065;-76
2023/06/03 01:17:59;;;;;;;0.75;0.70;;;3.40;99.90;;;1.80;80.38;102072.72;4990555;28;20053;-76
2023/06/03 01:20:29;;;;;;;2.20;1.15;;;3.30;99.90;;;1.74;80.16;102073.50;4978156;28;20562;-76
2023/06/03 01:23:28;;;;;;;3.78;1.20;;;3.30;99.90;;;1.74;80.03;102072.63;4990750;28;20517;-76
2023/06/03 01:25:57;;;;;;;8.73;1.52;;;3.30;99.90;;;1.73;80.45;102076.97;4992037;28;20601;-76
2023/06/03 01:28:24;;;;;;;1.88;0.80;;;3.30;99.90;;;1.78;80.63;102071.81;4992003;28;20045;-76
2023/06/03 01:30:55;;;;;;;4.75;1.83;;;3.30;99.90;;;1.81;81.20;102072.75;4991328;28;20081;-76
2023/06/03 01:33:24;;;;;;;6.43;2.00;;;3.30;99.90;;;1.85;81.97;102087.47;4989549;28;20073;-77
2023/06/03 01:35:56;;;;;;;5.32;1.63;;;3.30;99.90;;;1.94;83.21;102081.50;4990177;28;20092;-76
2023/06/03 01:38:23;;;;;;;3.30;1.20;;;3.40;99.90;;;2.00;84.34;102086.78;4990106;28;20042;-76
2023/06/03 01:40:51;;;;;;;2.53;1.33;;;3.50;99.90;;;2.09;84.67;102086.00;4990928;28;20052;-76
2023/06/03 01:43:18;;;;;;;5.32;1.38;;;3.60;99.90;;;2.18;85.41;102099.09;4973493;28;20041;-76
2023/06/03 01:45:44;;;;;;;4.30;1.20;;;3.60;99.90;;;2.21;85.34;102101.72;4989331;28;20042;-76
2023/06/03 01:48:10;;;;;;;2.25;1.20;;;3.70;99.90;;;2.16;85.24;102103.41;4974197;28;20038;-77
2023/06/03 01:50:43;;;;;;;4.07;0.80;;;3.60;99.90;;;2.01;83.95;102104.13;4991793;28;20096;-76
2023/06/03 01:53:10;;;;;;;4.43;1.10;;;3.50;99.90;;;1.81;82.94;102105.59;4989526;28;20143;-76
2023/06/03 01:55:36;;;;;;;3.40;1.10;;;3.30;99.90;;;1.57;82.30;102101.00;4973221;28;20697;-77
2023/06/03 01:58:03;;;;;;;1.08;0.65;;;3.10;99.90;;;1.38;81.10;102099.88;4989399;28;20116;-76
2023/06/03 02:00:29;;;;;;;3.30;0.95;;;3.00;99.90;;;1.28;80.80;102104.09;4994530;28;20041;-76
2023/06/03 02:02:55;;;;;;;4.60;1.05;;;2.90;99.90;;;1.22;80.22;102099.66;4990274;28;20041;-76
2023/06/03 02:05:21;;;;;;;6.38;1.08;;;2.80;99.90;;;1.17;80.97;102096.16;4990704;28;20029;-75
2023/06/03 02:07:47;;;;;;;3.10;1.17;;;2.80;99.90;;;1.18;81.32;102097.00;4984588;28;20033;-76
2023/06/03 02:10:13;;;;;;;7.45;1.25;;;2.80;99.90;;;1.20;81.45;102105.69;4994347;28;20041;-76
2023/06/03 02:12:38;;;;;;;3.70;1.23;;;2.70;99.90;;;1.23;82.17;102103.13;4992199;28;20045;-76
2023/06/03 02:15:07;;;;;;;8.15;1.40;;;2.80;99.90;;;1.28;83.17;102098.03;4990858;28;20037;-76
2023/06/03 02:17:33;;;;;;;3.58;1.33;;;2.80;99.90;;;1.32;83.50;102100.69;4972955;28;20388;-76
2023/06/03 02:19:59;;;;;;;6.28;1.55;;;2.80;99.90;;;1.38;84.26;102102.47;4972744;28;20030;-76
2023/06/03 02:22:26;;;;;;;4.10;1.77;;;2.90;99.90;;;1.43;84.71;102099.09;4988978;28;20022;-76
2023/06/03 02:24:52;;;;;;;2.70;1.38;;;3.00;99.90;;;1.52;85.46;102103.53;4989006;28;20084;-76
2023/06/03 02:27:24;;;;;;;4.70;1.55;;;3.00;99.90;;;1.60;86.20;102111.44;4991219;28;20025;-76
2023/06/03 02:29:51;;;;;;;2.90;1.20;;;3.10;99.90;;;1.67;86.95;102110.66;4988096;28;20046;-76
2023/06/03 02:32:21;;;;;;;3.50;1.50;;;3.10;99.90;;;1.77;88.21;102114.22;4970712;28;20029;-76
2023/06/03 02:34:49;;;;;;;3.88;1.52;;;3.30;99.90;;;1.90;89.30;102115.22;4971974;28;20034;-76
2023/06/03 02:37:17;;;;;;;3.85;1.50;;;3.40;99.90;;;2.01;90.30;102114.50;4989691;28;20061;-77
2023/06/03 02:39:44;;;;;;;5.55;1.40;;;3.50;99.90;;;2.11;90.67;102112.00;4991326;28;20407;-77
2023/06/03 02:42:10;;;;;;;2.80;1.30;;;3.50;99.90;;;2.20;91.39;102113.00;4988850;28;20053;-76
2023/06/03 02:44:37;;;;;;;3.30;1.23;;;3.60;99.90;;;2.27;91.11;102111.31;4989095;28;20052;-76
2023/06/03 02:47:04;;;;;;;3.72;1.40;;;3.70;99.90;;;2.33;91.37;102118.28;4987075;28;20044;-76
2023/06/03 02:49:30;;;;;;;4.28;1.30;;;3.80;99.90;;;2.41;91.50;102112.28;4993490;28;20038;-77
2023/06/03 02:51:58;;;;;;;5.80;1.70;;;3.80;99.90;;;2.50;92.02;102115.84;4985845;28;20038;-77
2023/06/03 02:54:23;;;;;;;4.13;1.30;;;3.90;99.90;;;2.57;91.68;102118.53;4973264;28;20041;-76
2023/06/03 02:56:49;;;;;;;3.85;1.30;;;3.90;99.90;;;2.62;91.18;102124.63;4988817;28;20526;-77
2023/06/03 02:59:15;;;;;;;1.80;0.90;;;4.00;99.90;;;2.64;90.59;102122.91;4987236;28;20033;-76
2023/06/03 03:01:41;;;;;;;2.95;1.10;;;4.00;99.90;;;2.64;89.72;102117.72;4974453;28;20038;-76
2023/06/03 03:04:07;;;;;;;1.67;0.98;;;4.00;99.90;;;2.57;88.03;102128.03;4992794;28;20030;-76
2023/06/03 03:06:37;;;;;;;2.45;1.23;;;4.00;99.90;;;2.52;87.02;102125.41;4988481;28;20585;-76
2023/06/03 03:09:04;;;;;;;3.15;1.10;;;3.90;99.90;;;2.43;86.09;102123.59;4989761;28;20070;-76
2023/06/03 03:11:30;;;;;;;3.28;1.23;;;3.80;99.90;;;2.32;84.92;102124.34;4972621;28;20739;-76
2023/06/03 03:13:58;;;;;;;1.27;0.90;;;3.70;99.90;;;2.23;83.91;102123.41;4989327;28;20044;-77
2023/06/03 03:16:24;;;;;;;4.88;1.00;;;3.70;99.90;;;2.17;83.38;102125.94;4991159;28;20109;-76
2023/06/03 03:18:51;;;;;;;2.10;0.90;;;3.60;99.90;;;2.13;82.90;102129.34;4972789;28;20053;-76
2023/06/03 03:21:17;;;;;;;4.47;1.27;;;3.60;99.90;;;2.13;83.04;102124.16;4988446;28;20068;-75
2023/06/03 03:23:43;;;;;;;4.22;0.82;;;3.60;99.90;;;2.14;82.99;102125.91;4988230;28;20133;-77
2023/06/03 03:26:11;;;;;;;2.42;1.10;;;3.60;99.90;;;2.18;82.97;102132.88;4989956;28;20073;-76
2023/06/03 03:28:37;;;;;;;1.65;0.95;;;3.60;99.90;;;2.24;83.14;102129.47;4989813;28;20041;-76
2023/06/03 03:31:04;;;;;;;2.00;1.00;;;3.60;99.90;;;2.26;83.14;102123.41;4988644;28;20030;-76
2023/06/03 03:33:31;;;;;;;2.40;0.93;;;3.70;99.90;;;2.36;83.07;102132.19;4989731;28;20030;-76
2023/06/03 03:35:58;;;;;;;2.78;1.00;;;3.70;99.90;;;2.41;82.90;102124.44;4989949;28;20038;-76
2023/06/03 03:38:24;;;;;;;5.82;1.00;;;3.80;99.90;;;2.52;83.13;102130.59;5005052;28;20104;-76
2023/06/03 03:40:49;;;;;;;1.30;0.80;;;5.20;99.90;;;4.01;82.39;102151.50;4989168;28;20029;-77
2023/06/03 03:43:18;;;;;;;1.92;0.93;;;7.20;99.90;;;6.22;79.48;102166.97;4991297;28;20038;-76
2023/06/03 03:45:45;;;;;;;5.53;1.27;;;9.20;99.90;;;8.41;74.63;102184.94;4992007;28;20087;-77
2023/06/03 03:48:16;;;;;;;3.70;1.05;;;11.00;99.90;;;10.51;67.00;102200.38;4992921;28;20092;-76
2023/06/03 03:50:46;;;;;;;4.13;0.90;;;12.70;99.90;;;12.37;61.17;102211.28;4990014;28;20571;-76
2023/06/03 03:53:21;;;;;;;4.72;1.10;;;14.30;99.90;;;14.02;56.49;102226.97;4973568;28;20046;-76
2023/06/03 03:55:50;;;;;;;1.45;0.60;;;15.70;99.90;;;15.46;53.34;102246.84;4995609;28;20117;-76
2023/06/03 03:58:29;;;;;;;2.28;0.70;;;16.90;97.80;;;16.68;49.53;102252.88;4977203;28;20510;-77
2023/06/03 04:01:17;;;;;;;1.13;0.75;;;18.10;96.00;;;17.97;47.20;102275.69;4994906;28;20042;-77
2023/06/03 04:03:49;;;;;;;1.25;0.70;;;19.20;94.30;;;19.00;45.37;102286.88;4992439;28;20037;-77
2023/06/03 04:06:37;;;;;;;3.63;0.80;;;20.00;92.20;;;19.93;43.28;102286.81;4975532;28;20536;-77
2023/06/03 04:09:10;;;;;;;3.13;0.90;;;20.80;90.70;;;20.66;41.53;102297.38;4991831;28;20410;-76
2023/06/03 04:11:43;;;;;;;1.63;0.90;;;21.40;89.30;;;21.27;40.25;102305.88;4990553;28;20809;-77
2023/06/03 04:14:14;;;;;;;1.67;0.68;;;21.90;87.30;;;21.83;39.05;102308.38;4990810;28;20037;-77
2023/06/03 04:16:57;;;;;;;0.82;0.73;;;22.40;85.20;;;22.37;38.18;102326.09;4988192;28;20034;-77
2023/06/03 04:19:32;;;;;;;2.70;0.90;;;22.90;84.50;;;22.97;37.18;102333.34;4977588;28;20089;-77
2023/06/03 04:22:00;;;;;;;4.03;0.70;;;23.20;81.90;;;23.47;36.11;102338.59;4989715;28;20133;-77
2023/06/03 04:24:26;;;;;;;2.03;0.80;;;23.60;80.50;;;23.99;35.33;102342.69;4975291;28;20046;-77
2023/06/03 04:26:53;;;;;;;1.63;0.68;;;24.00;80.40;;;24.58;34.83;102355.09;4975880;28;20042;-77
2023/06/03 04:29:19;;;;;;;2.90;0.98;;;24.40;79.30;;;25.12;33.93;102362.34;4992333;28;20565;-77
2023/06/03 04:31:45;;;;;;;2.53;0.80;;;24.80;78.90;;;25.87;33.27;102368.63;4975394;28;20062;-77
2023/06/03 04:34:11;;;;;;;2.42;0.80;;;25.30;79.20;;;26.58;32.64;102376.03;4990066;28;20108;-77
2023/06/03 04:36:37;;;;;;;2.25;0.98;;;25.80;75.60;;;26.85;31.82;102382.69;4993722;28;20498;-77
2023/06/03 04:39:08;;;;;;;;;;;25.80;76.50;;;27.36;31.58;102390.59;4976688;28;20144;-77
2023/06/03 04:41:37;;;;;;;2.83;0.70;;;26.50;75.60;;;27.33;31.92;102393.59;4992279;28;20307;-77
2023/06/03 04:44:03;;;;;;;3.75;0.90;;;26.40;74.50;;;27.17;31.77;102396.81;4975758;28;20362;-77
2023/06/03 04:46:29;;;;;;;1.00;0.77;;;26.40;72.60;;;26.97;31.49;102403.16;4992585;28;20142;-77
2023/06/03 04:49:02;;;;;;;2.03;1.00;;;26.00;71.70;;;25.93;32.49;102402.38;4976857;28;20038;-77
2023/06/03 04:51:33;;;;;;;3.63;1.25;;;25.40;74.30;;;25.78;32.76;102415.31;4989216;28;20026;-77
2023/06/03 04:54:00;;;;;;;2.45;1.00;;;25.30;75.20;;;26.32;32.20;102414.25;4991707;23;20029;-78
2023/06/03 04:56:29;;;;;;;5.65;1.50;;;25.50;74.90;;;26.98;31.90;102434.63;4987893;28;20036;-78
2023/06/03 04:59:03;;;;;;;6.47;1.20;;;24.90;73.80;;;25.08;33.48;102405.84;4998130;28;20026;-78
2023/06/03 05:01:31;;;;;;;2.70;1.10;;;25.10;76.10;;;26.83;31.83;102436.84;4978342;28;22620;-78
2023/06/03 05:03:57;;;;;;;4.38;0.95;;;25.60;76.10;;;27.90;30.68;102445.16;4991002;28;20042;-77
2023/06/03 05:06:23;;;;;;;2.90;0.93;;;26.00;75.10;;;28.56;29.92;102441.63;4994118;28;20035;-77
2023/06/03 05:08:50;;;;;;;4.20;1.00;;;26.30;73.40;;;28.59;30.16;102445.88;4965589;28;20054;-78
2023/06/03 05:11:17;;;;;;;1.88;1.00;;;26.40;72.00;;;28.44;29.91;102442.75;5003978;28;20034;-77
2023/06/03 05:13:44;;;;;;;1.65;0.90;;;26.10;70.80;;;27.36;30.51;102430.31;4975575;28;20030;-78
2023/06/03 05:16:13;;;;;;;2.95;1.00;;;25.50;71.60;;;26.77;31.47;102430.13;4971974;28;20047;-77
2023/06/03 05:18:39;;;;;;;3.15;1.00;;;25.30;71.30;;;26.48;31.28;102429.13;4948723;28;20046;-77
2023/06/03 05:21:06;;;;;;;2.53;1.15;;;25.70;73.60;;;28.29;29.61;102453.19;4975700;28;20040;-77
2023/06/03 05:23:34;;;;;;;0.95;0.73;;;26.00;69.60;;;28.07;29.20;102450.84;4958244;28;20054;-77
2023/06/03 05:26:00;;;;;;;2.42;1.05;;;26.60;71.00;;;29.43;27.65;102461.16;4966564;28;20419;-77
2023/06/03 05:28:26;;;;;;;4.85;0.90;;;27.10;70.10;;;29.71;27.14;102463.81;5002938;28;20042;-78
2023/06/03 05:30:51;;;;;;;;;;;27.20;70.50;;;31.06;26.01;102476.97;4957500;28;20039;-77
2023/06/03 05:33:28;;;;;;;4.65;1.00;;;28.20;66.90;;;31.38;25.45;102461.72;4947870;28;20347;-77
2023/06/03 05:35:54;;;;;;;3.63;0.77;;;28.50;65.60;;;31.54;25.17;102467.25;4975570;28;20035;-78
2023/06/03 05:38:20;;;;;;;1.55;0.80;;;29.10;65.90;;;31.94;24.54;102468.25;4992114;28;20444;-79
2023/06/03 05:40:50;;;;;;;1.98;0.70;;;29.00;61.40;;;30.59;24.87;102447.50;4978561;28;20043;-78
2023/06/03 05:43:19;;;;;;;4.13;0.77;;;28.50;63.70;;;30.55;25.77;102457.00;4970411;28;20092;-78
2023/06/03 05:45:46;;;;;;;6.18;0.93;;;28.90;65.80;;;31.95;24.36;102469.13;4974626;28;20035;-78
2023/06/03 05:48:12;;;;;;;3.20;0.90;;;29.60;61.20;;;32.78;22.74;102474.28;4975462;28;20038;-77
2023/06/03 05:50:47;;;;;;;0.88;0.70;;;30.20;61.60;;;33.13;22.76;102477.56;4980540;28;20122;-77
2023/06/03 05:53:13;;;;;;;3.22;0.70;;;30.60;59.70;;;33.09;22.46;102474.34;4971323;28;20181;-78
2023/06/03 05:55:39;;;;;;;1.35;0.80;;;31.10;60.00;;;33.92;21.83;102478.22;4973313;28;20042;-77
2023/06/03 05:58:05;;;;;;;;;;;31.20;60.50;;;34.43;21.70;102479.44;4976148;28;20119;-77
2023/06/03 06:00:32;;;;;;;0.98;0.45;;;32.00;58.40;;;34.32;21.42;102475.28;4949279;28;19976;-75
2023/06/03 06:02:58;;;;;;;3.30;0.70;;;31.90;56.20;;;33.50;21.75;102462.34;4983244;28;20137;-74
2023/06/03 06:05:23;;;;;;;5.10;0.75;;;32.20;57.50;;;34.04;21.50;102464.09;4945054;28;20038;-76
2023/06/03 06:07:49;;;;;;;3.65;0.63;;;32.20;53.80;;;33.08;21.52;102458.16;4961363;28;20446;-76
2023/06/03 06:10:15;;;;;;;1.00;0.60;;;31.90;53.50;;;31.84;22.33;102454.00;4957510;28;20037;-77
2023/06/03 06:12:41;;;;;;;1.40;0.50;;;31.60;55.10;;;32.21;21.49;102461.63;4974717;28;20046;-75
2023/06/03 06:15:07;;;;;;;0.80;0.60;;;31.50;54.60;;;32.74;21.46;102470.19;4973817;28;20037;-76
2023/06/03 06:17:33;;;;;;;1.20;0.70;;;31.70;52.90;;;32.50;21.57;102461.03;4963770;28;20051;-77
2023/06/03 06:20:02;;;;;;;1.58;0.70;;;31.20;54.30;;;31.94;21.91;102462.81;4956400;28;20511;-77
2023/06/03 06:22:28;;;;;;;2.15;0.70;;;31.20;53.60;;;32.32;21.40;102456.84;4973732;28;20042;-76
2023/06/03 06:24:54;;;;;;;1.50;0.50;;;30.90;52.70;;;31.27;22.30;102452.00;4965229;28;20030;-76
2023/06/03 06:27:20;;;;;;;1.10;0.68;;;30.90;52.20;;;31.02;21.73;102448.41;4964249;28;20407;-78
2023/06/03 06:29:45;;;;;;;1.05;0.68;;;29.60;50.80;;;28.29;23.58;102423.41;4961372;28;20034;-78
2023/06/03 06:32:24;;;;;;;1.45;0.50;;;28.30;51.00;;;27.02;24.28;102409.03;4973695;28;20073;-76
2023/06/03 06:34:51;;;;;;;1.75;0.70;;;28.10;52.30;;;26.91;24.42;102409.13;4958555;28;20034;-77
2023/06/03 06:37:19;;;;;;;1.42;0.60;;;28.20;54.50;;;28.50;23.99;102417.81;4967951;28;20033;-76
2023/06/03 06:39:46;;;;;;;3.92;0.70;;;28.00;54.80;;;27.88;24.04;102406.53;4980207;28;20038;-76
2023/06/03 06:42:12;;;;;;;1.45;0.73;;;28.50;55.80;;;29.39;23.45;102417.19;4968752;28;20060;-78
2023/06/03 06:44:47;;;;;;;1.80;0.60;;;28.70;53.90;;;29.39;23.35;102416.34;4956622;28;20539;-77
2023/06/03 06:47:32;;;;;;;5.13;0.60;;;29.50;53.40;;;29.46;22.30;102428.28;4944100;28;21414;-77
2023/06/03 06:49:58;;;;;;;1.35;0.50;;;28.70;52.10;;;27.95;23.75;102410.41;4970585;28;20080;-76
2023/06/03 06:52:25;;;;;;;0.57;0.57;;;28.30;53.10;;;27.57;24.38;102405.84;4964519;28;20827;-76
2023/06/03 06:54:54;;;;;;;0.95;0.68;;;28.60;55.20;;;29.00;23.28;102422.00;4965405;28;20053;-76
2023/06/03 06:57:23;;;;;;;3.88;0.70;;;29.20;53.90;;;29.96;22.88;102433.16;4971582;28;20066;-76
2023/06/03 06:59:53;;;;;;;3.92;0.60;;;29.90;54.60;;;30.89;22.15;102446.13;4954502;28;20055;-76
2023/06/03 07:02:20;;;;;;;4.03;0.50;;;30.30;51.80;;;30.01;22.42;102428.09;4953827;28;20042;-78
2023/06/03 07:04:49;;;;;;;0.90;0.50;;;30.40;50.90;;;28.12;22.50;102422.34;4971511;28;20049;-77
2023/06/03 07:07:15;;;;;;;4.25;0.70;;;29.20;50.50;;;27.75;23.44;102408.66;4962448;28;20077;-76
2023/06/03 07:09:41;;;;;;;1.70;0.60;;;29.00;52.50;;;28.12;22.84;102406.09;4978526;28;20026;-78
2023/06/03 07:12:09;;;;;;;0.47;0.43;;;28.10;51.30;;;26.22;24.38;102390.91;4964148;28;20045;-78
2023/06/03 07:14:36;;;;;;;0.70;0.68;;;27.80;53.50;;;27.38;24.03;102385.03;4954956;28;20204;-77
2023/06/03 07:17:02;;;;;;;1.88;0.50;;;27.70;53.10;;;26.38;24.38;102375.06;4974318;28;20031;-76
2023/06/03 07:19:37;;;;;;;1.95;0.50;;;26.80;53.40;;;24.94;25.60;102355.78;4965624;28;20078;-77
2023/06/03 07:22:06;;;;;;;1.15;0.68;;;26.70;54.90;;;26.47;25.00;102374.25;4977138;28;20035;-78
2023/06/03 07:24:35;;;;;;;1.23;0.60;;;26.70;52.30;;;25.90;24.45;102365.72;4971019;28;20513;-77
2023/06/03 07:27:04;;;;;;;1.20;0.63;;;26.10;52.70;;;24.73;25.08;102348.47;4974437;28;20073;-77
2023/06/03 07:29:38;;;;;;;5.57;0.65;;;25.60;53.00;;;24.26;26.16;102339.66;4973255;28;20049;-76
2023/06/03 07:32:07;;;;;;;1.45;0.50;;;25.90;53.60;;;25.86;24.57;102364.25;4967487;28;20061;-77
2023/06/03 07:34:34;;;;;;;0.85;0.50;;;26.20;53.20;;;25.79;24.70;102360.38;4976497;28;20026;-76
2023/06/03 07:37:05;;;;;;;1.63;0.60;;;26.50;53.60;;;26.06;24.77;102369.78;4990940;28;20030;-76
2023/06/03 07:39:32;;;;;;;1.52;0.57;;;26.60;55.30;;;26.14;24.38;102370.84;4969742;28;20045;-76
2023/06/03 07:41:58;;;;;;;0.77;0.40;;;26.70;50.90;;;26.42;23.34;102381.91;4973695;28;20035;-78
2023/06/03 07:44:44;;;;;;;6.15;0.70;;;26.70;52.30;;;26.01;22.97;102378.28;4970645;28;20037;-77
2023/06/03 07:47:14;;;;;;;1.58;0.45;;;26.80;52.50;;;26.83;23.32;102390.06;4978300;28;20050;-76
2023/06/03 07:49:43;;;;;;;1.00;0.60;;;27.20;52.60;;;27.57;22.45;102397.72;4967759;28;20027;-77
2023/06/03 07:52:18;;;;;;;1.50;0.52;;;27.70;52.40;;;28.20;22.31;102402.63;4995878;28;20377;-77
2023/06/03 07:54:44;;;;;;;1.55;0.60;;;28.20;51.40;;;28.54;21.91;102415.69;4973856;28;20035;-77
2023/06/03 07:57:13;;;;;;;0.57;0.47;;;28.60;51.10;;;29.03;21.15;102424.41;4955003;28;20068;-77
2023/06/03 07:59:39;;;;;;;0.65;0.40;;;29.00;51.00;;;29.13;21.77;102424.38;4977013;28;20407;-76
2023/06/03 08:02:08;;;;;;;1.40;0.50;;;28.90;49.50;;;28.23;21.90;102413.19;4974402;28;20027;-76
2023/06/03 08:04:35;;;;;;;1.48;0.60;;;27.70;50.00;;;26.43;23.25;102389.00;4969505;28;20046;-77
2023/06/03 08:07:02;;;;;;;1.10;0.47;;;27.50;50.80;;;27.01;22.79;102401.91;4970808;28;20122;-77
2023/06/03 08:09:35;;;;;;;0.50;0.40;;;27.10;51.10;;;26.32;23.07;102387.25;4991826;28;20039;-77
2023/06/03 08:12:07;;;;;;;0.98;0.60;;;25.90;51.20;;;23.45;25.42;102341.41;4967194;28;20042;-78
2023/06/03 08:14:37;;;;;;;1.88;0.50;;;25.60;53.50;;;24.84;25.07;102349.41;4974092;28;20038;-76
2023/06/03 08:17:12;;;;;;;0.95;0.52;;;25.40;54.40;;;24.83;25.28;102351.25;4973405;28;20124;-76
2023/06/03 08:19:38;;;;;;;1.05;0.65;;;25.20;53.50;;;24.38;25.00;102347.72;4976164;28;20530;-77
2023/06/03 08:22:40;;;;;;;1.55;0.60;;;25.00;54.70;;;24.32;24.85;102343.72;4961983;28;20053;-76
2023/06/03 08:25:07;;;;;;;0.60;0.60;;;24.20;54.00;;;23.27;25.95;102326.69;4988499;28;20072;-76
2023/06/03 08:27:35;;;;;;;1.55;0.50;;;23.90;55.10;;;23.33;26.49;102321.69;4972846;28;20043;-76
2023/06/03 08:30:03;;;;;;;2.05;0.60;;;23.90;55.60;;;23.35;26.90;102313.53;4994695;28;20083;-77
2023/06/03 08:32:33;;;;;;;2.35;0.40;;;23.80;55.70;;;23.06;26.67;102313.88;4978039;28;20062;-77
2023/06/03 08:34:58;;;;;;;2.10;0.77;;;23.80;57.10;;;23.26;27.63;102306.16;4968480;28;20503;-76
2023/06/03 08:37:25;;;;;;;3.80;0.50;;;23.80;57.20;;;23.07;28.18;102307.53;4959530;28;20041;-76
2023/06/03 08:39:52;;;;;;;6.40;0.60;;;23.80;56.40;;;22.95;27.38;102308.41;4973417;28;20046;-77
2023/06/03 08:42:23;;;;;;;1.17;0.60;;;23.70;56.10;;;22.98;27.43;102307.31;4973103;28;20042;-76
2023/06/03 08:45:06;;;;;;;1.90;0.50;;;23.20;56.30;;;21.80;28.20;102285.31;4969404;28;20653;-76
2023/06/03 08:48:14;;;;;;;2.50;0.40;;;22.80;56.10;;;21.09;28.96;102265.97;4978564;28;20033;-76
2023/06/03 08:50:43;;;;;;;0.80;0.50;;;22.30;58.00;;;20.98;29.98;102264.97;4979676;28;20041;-77
2023/06/03 08:53:11;;;;;;;0.52;0.40;;;21.80;58.80;;;20.23;30.78;102255.47;4967100;28;20521;-76
2023/06/03 08:55:39;;;;;;;1.42;0.80;;;21.60;59.30;;;20.38;30.42;102259.00;4967046;28;20759;-77
2023/06/03 08:58:32;;;;;;;1.38;0.70;;;21.40;60.70;;;20.20;31.03;102257.50;4976022;28;20035;-76
2023/06/03 09:01:02;;;;;;;0.98;0.55;;;21.10;58.80;;;19.68;30.86;102242.84;4975933;28;20129;-76
2023/06/03 09:03:29;;;;;;;1.88;0.55;;;21.00;61.50;;;19.93;31.99;102241.34;4962984;28;20093;-76
2023/06/03 09:05:58;;;;;;;1.70;0.40;;;20.80;61.40;;;19.39;32.18;102232.09;4963756;28;20069;-76
2023/06/03 09:08:25;;;;;;;1.63;0.60;;;20.80;62.40;;;19.80;32.22;102231.41;4976403;28;20083;-77
2023/06/03 09:10:52;;;;;;;0.88;0.32;;;21.00;62.20;;;20.41;31.83;102234.72;4959953;28;20108;-77
2023/06/03 09:13:22;;;;;;;0.68;0.57;;;21.10;62.00;;;20.43;31.50;102243.53;4976518;28;20394;-77
2023/06/03 09:15:50;;;;;;;0.47;0.40;;;21.40;61.50;;;20.76;31.06;102228.06;4988086;28;20026;-76
2023/06/03 09:18:17;;;;;;;0.93;0.50;;;21.60;60.90;;;20.78;30.96;102248.41;4964772;28;20095;-77
2023/06/03 09:20:43;;;;;;;1.95;0.60;;;21.70;61.20;;;21.08;30.71;102242.84;4966454;28;20030;-77
2023/06/03 09:23:12;;;;;;;0.90;0.60;;;22.00;61.30;;;21.37;30.54;102228.44;4956461;28;20062;-76
2023/06/03 09:25:38;;;;;;;0.70;0.40;;;22.10;62.30;;;21.46;30.83;102239.41;4958508;28;20050;-76
2023/06/03 09:28:05;;;;;;;1.95;0.73;;;22.10;59.10;;;20.75;30.33;102239.72;4960430;28;20049;-76
2023/06/03 09:30:35;;;;;;;2.47;0.60;;;21.40;59.40;;;19.80;31.83;102219.88;4978974;28;20022;-77
2023/06/03 09:33:01;;;;;;;1.77;0.68;;;21.30;60.90;;;20.36;31.10;102218.09;4951967;28;20400;-76
2023/06/03 09:35:35;;;;;;;1.60;0.68;;;21.50;61.60;;;20.82;31.06;102216.94;5001492;28;20030;-75
2023/06/03 09:38:06;;;;;;;3.35;0.80;;;21.70;61.60;;;21.16;30.65;102226.25;4971628;28;20496;-75
2023/06/03 09:40:35;;;;;;;0.95;0.60;;;21.80;60.50;;;20.80;30.73;102234.91;4965637;28;20038;-74
2023/06/03 09:43:18;;;;;;;2.33;0.60;;;21.80;60.50;;;20.71;30.76;102224.81;4963865;28;20109;-75
2023/06/03 09:45:47;;;;;;;2.53;0.60;;;21.40;59.30;;;20.06;31.12;102218.25;4980017;28;20514;-74
2023/06/03 09:48:24;;;;;;;1.77;0.50;;;21.40;60.90;;;19.93;32.11;102207.47;4961103;28;20816;-75
2023/06/03 09:50:53;;;;;;;0.85;0.50;;;20.90;61.10;;;19.30;31.90;102208.63;4975628;28;20090;-76
2023/06/03 09:53:19;;;;;;;3.65;0.57;;;21.00;61.40;;;20.08;31.46;102205.63;4971926;28;20034;-75
2023/06/03 09:55:45;;;;;;;0.68;0.40;;;21.10;61.80;;;20.26;31.61;102207.16;4975459;28;20406;-75
2023/06/03 09:58:13;;;;;;;1.30;0.60;;;21.10;61.50;;;20.24;31.31;102205.53;4977393;28;20038;-75
2023/06/03 10:00:55;;;;;;;0.30;0.30;;;21.20;62.40;;;20.45;31.57;102205.94;4974502;28;20031;-77
2023/06/03 10:03:25;;;;;;;4.90;0.90;;;21.30;62.30;;;20.46;31.38;102202.31;4965748;28;20448;-75
2023/06/03 10:05:53;;;;;;;6.63;0.65;;;21.30;62.30;;;20.61;31.63;102200.50;4964797;28;20027;-76
2023/06/03 10:08:38;;;;;;;1.95;0.60;;;21.40;61.30;;;20.48;31.48;102200.41;4979075;28;20041;-76
2023/06/03 10:11:04;;;;;;;1.40;0.43;;;21.30;61.50;;;20.28;31.83;102199.88;4972406;28;20033;-76
2023/06/03 10:13:33;;;;;;;0.65;0.60;;;21.20;60.40;;;20.05;31.27;102187.13;4965275;28;20025;-76
2023/06/03 10:16:01;;;;;;;5.25;0.80;;;21.20;60.70;;;20.06;31.62;102197.72;5000535;28;20042;-79
2023/06/03 10:18:42;;;;;;;0.93;0.47;;;20.90;60.50;;;19.80;32.16;102179.78;4979149;28;20122;-74
2023/06/03 10:21:12;;;;;;;3.83;0.63;;;20.90;61.40;;;19.98;31.53;102180.47;4989532;28;20042;-77
2023/06/03 10:23:41;;;;;;;1.52;0.50;;;20.90;61.90;;;19.98;31.44;102183.13;4972706;28;20339;-74
2023/06/03 10:26:09;;;;;;;4.32;0.52;;;20.60;62.90;;;19.26;32.77;102167.03;4973425;28;20053;-74